sensor_id;sensor_type;location;lat;lon;timestamp;pressure;altitude;pressure_sealevel;temperature;humidity
61537;BME280;48695;53.480;-6.300;2022-10-31T00:01:54;100029.03;;;14.64;67.26
61537;BME280;48695;53.480;-6.300;2022-10-31T00:04:19;100035.00;;;14.68;67.43
61537;BME280;48695;53.480;-6.300;2022-10-31T00:06:45;100034.03;;;14.70;67.50
61537;BME280;48695;53.480;-6.300;2022-10-31T00:09:10;100035.53;;;14.74;67.88
61537;BME280;48695;53.480;-6.300;2022-10-31T00:11:36;100030.47;;;14.71;67.39
61537;BME280;48695;53.480;-6.300;2022-10-31T00:14:02;100036.34;;;14.76;67.45
61537;BME280;48695;53.480;-6.300;2022-10-31T00:16:29;100039.81;;;14.77;67.47
61537;BME280;48695;53.480;-6.300;2022-10-31T00:18:57;100042.34;;;14.78;67.86
61537;BME280;48695;53.480;-6.300;2022-10-31T00:21:24;100042.34;;;14.78;67.53
61537;BME280;48695;53.480;-6.300;2022-10-31T00:23:49;100041.50;;;14.78;67.73
61537;BME280;48695;53.480;-6.300;2022-10-31T00:26:16;100022.72;;;14.68;67.50
61537;BME280;48695;53.480;-6.300;2022-10-31T00:28:42;100036.16;;;14.79;67.28
61537;BME280;48695;53.480;-6.300;2022-10-31T00:31:09;100037.94;;;14.79;67.48
61537;BME280;48695;53.480;-6.300;2022-10-31T00:33:36;100031.06;;;14.76;67.83
61537;BME280;48695;53.480;-6.300;2022-10-31T00:36:04;100037.88;;;14.81;67.25
61537;BME280;48695;53.480;-6.300;2022-10-31T00:38:30;100033.53;;;14.79;67.77
61537;BME280;48695;53.480;-6.300;2022-10-31T00:40:55;100036.94;;;14.82;67.81
61537;BME280;48695;53.480;-6.300;2022-10-31T00:43:20;100031.69;;;14.82;67.67
61537;BME280;48695;53.480;-6.300;2022-10-31T00:45:46;100037.72;;;14.84;67.80
61537;BME280;48695;53.480;-6.300;2022-10-31T00:48:11;100031.69;;;14.82;67.77
61537;BME280;48695;53.480;-6.300;2022-10-31T00:50:37;100025.59;;;14.81;67.97
61537;BME280;48695;53.480;-6.300;2022-10-31T00:53:03;100035.06;;;14.84;67.63
61537;BME280;48695;53.480;-6.300;2022-10-31T00:55:28;100030.66;;;14.84;67.25
61537;BME280;48695;53.480;-6.300;2022-10-31T00:57:54;100026.25;;;14.85;67.57
61537;BME280;48695;53.480;-6.300;2022-10-31T01:00:19;100020.16;;;14.84;67.50
61537;BME280;48695;53.480;-6.300;2022-10-31T01:02:45;100007.25;;;14.79;67.67
61537;BME280;48695;53.480;-6.300;2022-10-31T01:05:10;99992.59;;;14.75;67.92
61537;BME280;48695;53.480;-6.300;2022-10-31T01:07:37;99991.97;;;14.70;67.67
61537;BME280;48695;53.480;-6.300;2022-10-31T01:10:03;100016.53;;;14.87;67.48
61537;BME280;48695;53.480;-6.300;2022-10-31T01:12:29;100011.28;;;14.87;67.41
61537;BME280;48695;53.480;-6.300;2022-10-31T01:14:55;100008.66;;;14.87;67.76
61537;BME280;48695;53.480;-6.300;2022-10-31T01:17:20;100012.22;;;14.86;67.62
61537;BME280;48695;53.480;-6.300;2022-10-31T01:19:45;100001.00;;;14.82;67.73
61537;BME280;48695;53.480;-6.300;2022-10-31T01:22:11;100006.94;;;14.86;67.70
61537;BME280;48695;53.480;-6.300;2022-10-31T01:24:36;100008.66;;;14.87;67.35
61537;BME280;48695;53.480;-6.300;2022-10-31T01:27:02;100010.47;;;14.85;67.34
61537;BME280;48695;53.480;-6.300;2022-10-31T01:29:27;99993.09;;;14.82;67.98
61537;BME280;48695;53.480;-6.300;2022-10-31T01:31:53;99965.69;;;14.70;67.27
61537;BME280;48695;53.480;-6.300;2022-10-31T01:34:18;99987.63;;;14.87;67.91
61537;BME280;48695;53.480;-6.300;2022-10-31T01:36:45;100000.66;;;14.88;67.65
61537;BME280;48695;53.480;-6.300;2022-10-31T01:39:14;99995.31;;;14.90;68.03
61537;BME280;48695;53.480;-6.300;2022-10-31T01:41:46;100000.44;;;14.93;67.74
61537;BME280;48695;53.480;-6.300;2022-10-31T01:49:34;99988.84;;;14.97;67.64
61537;BME280;48695;53.480;-6.300;2022-10-31T01:54:33;99998.03;;;15.05;67.59
61537;BME280;48695;53.480;-6.300;2022-10-31T01:57:02;99993.63;;;15.06;67.53
61537;BME280;48695;53.480;-6.300;2022-10-31T01:59:32;99989.13;;;15.08;67.47
61537;BME280;48695;53.480;-6.300;2022-10-31T02:01:59;99989.88;;;15.10;67.62
61537;BME280;48695;53.480;-6.300;2022-10-31T02:04:25;99993.28;;;15.12;67.19
61537;BME280;48695;53.480;-6.300;2022-10-31T02:06:56;99989.63;;;15.15;67.19
61537;BME280;48695;53.480;-6.300;2022-10-31T02:09:25;99978.22;;;15.16;67.62
61537;BME280;48695;53.480;-6.300;2022-10-31T02:11:56;99981.50;;;15.19;67.50
61537;BME280;48695;53.480;-6.300;2022-10-31T02:14:24;99951.69;;;15.03;67.36
61537;BME280;48695;53.480;-6.300;2022-10-31T02:16:50;99984.13;;;15.19;66.89
61537;BME280;48695;53.480;-6.300;2022-10-31T02:19:46;99944.41;;;15.08;66.69
61537;BME280;48695;53.480;-6.300;2022-10-31T02:22:26;99975.00;;;15.26;66.68
61537;BME280;48695;53.480;-6.300;2022-10-31T02:27:53;99978.28;;;15.30;66.48
61537;BME280;48695;53.480;-6.300;2022-10-31T02:30:25;99982.81;;;15.28;66.50
61537;BME280;48695;53.480;-6.300;2022-10-31T02:33:58;99970.50;;;15.28;66.40
61537;BME280;48695;53.480;-6.300;2022-10-31T02:36:17;99959.03;;;15.29;66.24
61537;BME280;48695;53.480;-6.300;2022-10-31T02:46:48;99947.56;;;15.30;66.12
61537;BME280;48695;53.480;-6.300;2022-10-31T02:52:00;99946.06;;;15.26;65.46
61537;BME280;48695;53.480;-6.300;2022-10-31T02:54:27;99929.34;;;15.27;65.79
61537;BME280;48695;53.480;-6.300;2022-10-31T02:57:05;99942.25;;;15.32;65.62
61537;BME280;48695;53.480;-6.300;2022-10-31T02:59:34;99939.69;;;15.30;65.78
61537;BME280;48695;53.480;-6.300;2022-10-31T03:02:26;99931.63;;;15.34;65.98
61537;BME280;48695;53.480;-6.300;2022-10-31T03:07:42;99921.81;;;15.37;66.02
61537;BME280;48695;53.480;-6.300;2022-10-31T03:12:40;99900.66;;;15.39;65.51
61537;BME280;48695;53.480;-6.300;2022-10-31T03:15:23;99906.53;;;15.44;65.69
61537;BME280;48695;53.480;-6.300;2022-10-31T03:20:25;99902.00;;;15.46;65.62
61537;BME280;48695;53.480;-6.300;2022-10-31T03:22:54;99904.59;;;15.47;65.35
61537;BME280;48695;53.480;-6.300;2022-10-31T03:25:21;99902.88;;;15.46;65.81
61537;BME280;48695;53.480;-6.300;2022-10-31T03:27:48;99905.44;;;15.48;65.37
61537;BME280;48695;53.480;-6.300;2022-10-31T03:30:14;99903.53;;;15.50;65.91
61537;BME280;48695;53.480;-6.300;2022-10-31T03:33:02;99905.06;;;15.54;65.31
61537;BME280;48695;53.480;-6.300;2022-10-31T03:35:29;99912.97;;;15.54;65.81
61537;BME280;48695;53.480;-6.300;2022-10-31T03:37:56;99910.19;;;15.57;65.68
61537;BME280;48695;53.480;-6.300;2022-10-31T03:40:23;99906.19;;;15.66;65.32
61537;BME280;48695;53.480;-6.300;2022-10-31T03:42:57;99900.94;;;15.66;65.39
61537;BME280;48695;53.480;-6.300;2022-10-31T03:45:26;99897.56;;;15.64;65.19
61537;BME280;48695;53.480;-6.300;2022-10-31T03:47:54;99901.72;;;15.68;65.08
61537;BME280;48695;53.480;-6.300;2022-10-31T03:50:21;99905.34;;;15.65;64.95
61537;BME280;48695;53.480;-6.300;2022-10-31T03:53:10;99906.72;;;15.72;64.99
61537;BME280;48695;53.480;-6.300;2022-10-31T03:55:50;99904.84;;;15.74;65.27
61537;BME280;48695;53.480;-6.300;2022-10-31T03:58:41;99892.78;;;15.70;64.89
61537;BME280;48695;53.480;-6.300;2022-10-31T04:01:11;99885.06;;;15.67;65.23
61537;BME280;48695;53.480;-6.300;2022-10-31T04:03:39;99881.81;;;15.62;64.92
61537;BME280;48695;53.480;-6.300;2022-10-31T04:06:10;99882.34;;;15.69;65.17
61537;BME280;48695;53.480;-6.300;2022-10-31T04:08:47;99881.50;;;15.68;64.82
61537;BME280;48695;53.480;-6.300;2022-10-31T04:11:16;99888.66;;;15.66;64.88
61537;BME280;48695;53.480;-6.300;2022-10-31T04:13:44;99904.50;;;15.65;64.77
61537;BME280;48695;53.480;-6.300;2022-10-31T04:16:10;99891.19;;;15.68;64.96
61537;BME280;48695;53.480;-6.300;2022-10-31T04:18:37;99887.78;;;15.66;64.55
61537;BME280;48695;53.480;-6.300;2022-10-31T04:21:05;99878.13;;;15.66;64.81
61537;BME280;48695;53.480;-6.300;2022-10-31T04:23:31;99866.53;;;15.53;64.74
61537;BME280;48695;53.480;-6.300;2022-10-31T04:25:57;99864.84;;;15.52;64.75
61537;BME280;48695;53.480;-6.300;2022-10-31T04:28:23;99883.53;;;15.63;64.65
61537;BME280;48695;53.480;-6.300;2022-10-31T04:30:48;99881.81;;;15.62;65.26
61537;BME280;48695;53.480;-6.300;2022-10-31T04:33:14;99887.88;;;15.64;65.13
61537;BME280;48695;53.480;-6.300;2022-10-31T04:35:40;99883.53;;;15.63;64.91
61537;BME280;48695;53.480;-6.300;2022-10-31T04:38:05;99870.28;;;15.65;65.36
61537;BME280;48695;53.480;-6.300;2022-10-31T04:40:30;99863.34;;;15.64;65.40
61537;BME280;48695;53.480;-6.300;2022-10-31T04:42:56;99865.88;;;15.65;65.32
61537;BME280;48695;53.480;-6.300;2022-10-31T04:45:21;99846.25;;;15.55;64.87
61537;BME280;48695;53.480;-6.300;2022-10-31T04:47:47;99860.59;;;15.65;65.21
61537;BME280;48695;53.480;-6.300;2022-10-31T04:50:12;99869.44;;;15.64;64.69
61537;BME280;48695;53.480;-6.300;2022-10-31T04:52:41;99879.97;;;15.64;64.78
61537;BME280;48695;53.480;-6.300;2022-10-31T04:55:07;99857.72;;;15.54;64.79
61537;BME280;48695;53.480;-6.300;2022-10-31T04:57:40;99866.81;;;15.64;65.33
61537;BME280;48695;53.480;-6.300;2022-10-31T05:00:06;99867.88;;;15.60;65.43
61537;BME280;48695;53.480;-6.300;2022-10-31T05:02:31;99859.16;;;15.60;65.61
61537;BME280;48695;53.480;-6.300;2022-10-31T05:04:57;99865.88;;;15.65;65.56
61537;BME280;48695;53.480;-6.300;2022-10-31T05:07:22;99864.88;;;15.68;65.33
61537;BME280;48695;53.480;-6.300;2022-10-31T05:09:48;99863.56;;;15.59;65.09
61537;BME280;48695;53.480;-6.300;2022-10-31T05:12:13;99879.28;;;15.76;65.42
61537;BME280;48695;53.480;-6.300;2022-10-31T05:14:38;99861.63;;;15.78;65.24
61537;BME280;48695;53.480;-6.300;2022-10-31T05:17:04;99870.19;;;15.82;64.81
61537;BME280;48695;53.480;-6.300;2022-10-31T05:19:29;99856.94;;;15.83;64.89
61537;BME280;48695;53.480;-6.300;2022-10-31T05:21:55;99857.59;;;15.87;64.99
61537;BME280;48695;53.480;-6.300;2022-10-31T05:24:20;99860.03;;;15.90;65.18
61537;BME280;48695;53.480;-6.300;2022-10-31T05:26:47;99860.72;;;15.94;64.73
61537;BME280;48695;53.480;-6.300;2022-10-31T05:29:13;99859.78;;;15.95;64.60
61537;BME280;48695;53.480;-6.300;2022-10-31T05:31:38;99857.25;;;15.93;64.46
61537;BME280;48695;53.480;-6.300;2022-10-31T05:34:04;99851.78;;;15.96;64.42
61537;BME280;48695;53.480;-6.300;2022-10-31T05:36:29;99850.03;;;15.97;64.89
61537;BME280;48695;53.480;-6.300;2022-10-31T05:38:54;99846.63;;;15.95;64.40
61537;BME280;48695;53.480;-6.300;2022-10-31T05:41:20;99841.19;;;15.98;64.33
61537;BME280;48695;53.480;-6.300;2022-10-31T05:43:45;99840.34;;;15.97;64.18
61537;BME280;48695;53.480;-6.300;2022-10-31T05:46:11;99828.75;;;16.00;64.82
61537;BME280;48695;53.480;-6.300;2022-10-31T05:48:36;99826.13;;;16.00;64.25
61537;BME280;48695;53.480;-6.300;2022-10-31T05:51:01;99829.53;;;16.02;64.54
61537;BME280;48695;53.480;-6.300;2022-10-31T05:53:27;99814.66;;;16.01;64.21
61537;BME280;48695;53.480;-6.300;2022-10-31T05:55:52;99829.34;;;16.05;64.43
61537;BME280;48695;53.480;-6.300;2022-10-31T05:58:17;99826.69;;;16.05;64.41
61537;BME280;48695;53.480;-6.300;2022-10-31T06:00:43;99822.28;;;16.05;64.69
61537;BME280;48695;53.480;-6.300;2022-10-31T06:03:09;99825.69;;;16.07;64.72
61537;BME280;48695;53.480;-6.300;2022-10-31T06:05:34;99832.75;;;16.07;64.92
61537;BME280;48695;53.480;-6.300;2022-10-31T06:08:00;99835.28;;;16.08;64.68
61537;BME280;48695;53.480;-6.300;2022-10-31T06:10:26;99831.81;;;16.08;64.74
61537;BME280;48695;53.480;-6.300;2022-10-31T06:12:52;99833.50;;;16.09;64.92
61537;BME280;48695;53.480;-6.300;2022-10-31T06:15:17;99816.94;;;16.07;64.92
61537;BME280;48695;53.480;-6.300;2022-10-31T06:17:43;99810.72;;;16.08;65.25
61537;BME280;48695;53.480;-6.300;2022-10-31T06:20:09;99817.78;;;16.07;65.08
61537;BME280;48695;53.480;-6.300;2022-10-31T06:22:34;99814.47;;;16.04;65.28
61537;BME280;48695;53.480;-6.300;2022-10-31T06:24:59;99785.47;;;15.90;65.21
61537;BME280;48695;53.480;-6.300;2022-10-31T06:27:25;99781.25;;;15.87;65.22
61537;BME280;48695;53.480;-6.300;2022-10-31T06:29:51;99805.84;;;16.02;65.17
61537;BME280;48695;53.480;-6.300;2022-10-31T06:32:16;99805.84;;;16.02;65.37
61537;BME280;48695;53.480;-6.300;2022-10-31T06:34:42;99800.00;;;15.97;65.15
61537;BME280;48695;53.480;-6.300;2022-10-31T06:37:09;99796.22;;;15.87;65.48
61537;BME280;48695;53.480;-6.300;2022-10-31T06:39:34;99792.63;;;15.88;65.32
61537;BME280;48695;53.480;-6.300;2022-10-31T06:42:00;99814.84;;;15.98;65.66
61537;BME280;48695;53.480;-6.300;2022-10-31T06:44:26;99788.31;;;15.87;65.24
61537;BME280;48695;53.480;-6.300;2022-10-31T06:46:51;99813.16;;;15.97;65.74
61537;BME280;48695;53.480;-6.300;2022-10-31T06:49:17;99806.19;;;15.96;65.75
61537;BME280;48695;53.480;-6.300;2022-10-31T06:51:43;99783.97;;;15.86;65.75
61537;BME280;48695;53.480;-6.300;2022-10-31T06:54:08;99779.63;;;15.85;66.10
61537;BME280;48695;53.480;-6.300;2022-10-31T06:56:34;99800.75;;;15.99;65.50
61537;BME280;48695;53.480;-6.300;2022-10-31T06:58:59;99798.00;;;16.00;66.03
61537;BME280;48695;53.480;-6.300;2022-10-31T07:01:24;99800.56;;;16.02;65.72
61537;BME280;48695;53.480;-6.300;2022-10-31T07:03:50;99802.16;;;16.04;65.80
61537;BME280;48695;53.480;-6.300;2022-10-31T07:06:15;99805.63;;;16.05;65.67
61537;BME280;48695;53.480;-6.300;2022-10-31T07:08:41;99806.59;;;16.04;65.84
61537;BME280;48695;53.480;-6.300;2022-10-31T07:11:06;99814.31;;;16.07;65.30
61537;BME280;48695;53.480;-6.300;2022-10-31T07:13:31;99822.28;;;16.05;65.53
61537;BME280;48695;53.480;-6.300;2022-10-31T07:16:02;99827.38;;;16.08;65.55
61537;BME280;48695;53.480;-6.300;2022-10-31T07:18:28;99825.00;;;16.04;65.23
61537;BME280;48695;53.480;-6.300;2022-10-31T07:20:54;99835.38;;;16.07;65.24
61537;BME280;48695;53.480;-6.300;2022-10-31T07:23:19;99820.13;;;15.98;65.37
61537;BME280;48695;53.480;-6.300;2022-10-31T07:25:45;99837.06;;;16.08;65.46
61537;BME280;48695;53.480;-6.300;2022-10-31T07:28:10;99835.38;;;16.07;65.67
61537;BME280;48695;53.480;-6.300;2022-10-31T07:30:37;99839.59;;;16.09;65.62
61537;BME280;48695;53.480;-6.300;2022-10-31T07:33:03;99835.38;;;16.07;65.52
61537;BME280;48695;53.480;-6.300;2022-10-31T07:35:29;99825.69;;;16.07;65.75
61537;BME280;48695;53.480;-6.300;2022-10-31T07:37:55;99835.00;;;16.13;65.56
61537;BME280;48695;53.480;-6.300;2022-10-31T07:40:21;99844.50;;;16.16;65.71
61537;BME280;48695;53.480;-6.300;2022-10-31T07:42:49;99847.06;;;16.17;65.94
61537;BME280;48695;53.480;-6.300;2022-10-31T07:45:17;99847.72;;;16.21;65.81
61537;BME280;48695;53.480;-6.300;2022-10-31T07:47:45;99831.44;;;16.14;65.58
61537;BME280;48695;53.480;-6.300;2022-10-31T07:50:13;99849.50;;;16.20;65.65
61537;BME280;48695;53.480;-6.300;2022-10-31T07:52:38;99850.28;;;16.22;65.86
61537;BME280;48695;53.480;-6.300;2022-10-31T07:55:05;99848.38;;;16.24;65.76
61537;BME280;48695;53.480;-6.300;2022-10-31T07:57:31;99848.38;;;16.24;65.91
61537;BME280;48695;53.480;-6.300;2022-10-31T07:59:56;99856.19;;;16.26;66.09
61537;BME280;48695;53.480;-6.300;2022-10-31T08:02:22;99846.75;;;16.22;65.74
61537;BME280;48695;53.480;-6.300;2022-10-31T08:04:48;99853.47;;;16.27;65.44
61537;BME280;48695;53.480;-6.300;2022-10-31T08:07:13;99838.13;;;16.20;65.51
61537;BME280;48695;53.480;-6.300;2022-10-31T08:09:39;99844.63;;;16.28;65.35
61537;BME280;48695;53.480;-6.300;2022-10-31T08:12:04;99844.44;;;16.31;65.35
61537;BME280;48695;53.480;-6.300;2022-10-31T08:14:30;99854.06;;;16.32;65.43
61537;BME280;48695;53.480;-6.300;2022-10-31T08:16:55;99854.63;;;16.38;65.25
61537;BME280;48695;53.480;-6.300;2022-10-31T08:19:21;99855.47;;;16.38;64.80
61537;BME280;48695;53.480;-6.300;2022-10-31T08:21:46;99843.03;;;16.40;64.74
61537;BME280;48695;53.480;-6.300;2022-10-31T08:24:15;99848.13;;;16.43;64.67
61537;BME280;48695;53.480;-6.300;2022-10-31T08:26:40;99843.72;;;16.44;64.58
61537;BME280;48695;53.480;-6.300;2022-10-31T08:29:05;99859.31;;;16.47;64.76
61537;BME280;48695;53.480;-6.300;2022-10-31T08:31:31;99857.34;;;16.50;64.68
61537;BME280;48695;53.480;-6.300;2022-10-31T08:33:56;99850.28;;;16.51;64.32
61537;BME280;48695;53.480;-6.300;2022-10-31T08:36:22;99850.13;;;16.54;63.85
61537;BME280;48695;53.480;-6.300;2022-10-31T08:38:47;99857.06;;;16.55;64.63
61537;BME280;48695;53.480;-6.300;2022-10-31T08:41:14;99849.91;;;16.57;64.77
61537;BME280;48695;53.480;-6.300;2022-10-31T08:43:39;99843.72;;;16.58;64.49
61537;BME280;48695;53.480;-6.300;2022-10-31T08:46:05;99844.47;;;16.60;64.78
61537;BME280;48695;53.480;-6.300;2022-10-31T08:48:30;99840.25;;;16.57;64.53
61537;BME280;48695;53.480;-6.300;2022-10-31T08:50:58;99845.03;;;16.65;63.90
61537;BME280;48695;53.480;-6.300;2022-10-31T08:53:24;99851.91;;;16.68;63.59
61537;BME280;48695;53.480;-6.300;2022-10-31T08:55:49;99844.75;;;16.70;63.61
61537;BME280;48695;53.480;-6.300;2022-10-31T08:58:17;99823.28;;;16.61;63.19
61537;BME280;48695;53.480;-6.300;2022-10-31T09:00:43;99846.75;;;16.80;63.99
61537;BME280;48695;53.480;-6.300;2022-10-31T09:03:16;99834.91;;;16.73;63.23
61537;BME280;48695;53.480;-6.300;2022-10-31T09:05:42;99840.81;;;16.77;62.45
61537;BME280;48695;53.480;-6.300;2022-10-31T09:08:08;99850.34;;;16.79;62.65
61537;BME280;48695;53.480;-6.300;2022-10-31T09:10:35;99845.81;;;16.81;62.90
61537;BME280;48695;53.480;-6.300;2022-10-31T09:13:06;99850.91;;;16.84;62.24
61537;BME280;48695;53.480;-6.300;2022-10-31T09:15:33;99852.47;;;16.87;62.60
61537;BME280;48695;53.480;-6.300;2022-10-31T09:17:58;99834.31;;;16.82;62.35
61537;BME280;48695;53.480;-6.300;2022-10-31T09:20:24;99864.44;;;16.93;62.00
61537;BME280;48695;53.480;-6.300;2022-10-31T09:23:00;99854.44;;;16.98;62.10
61537;BME280;48695;53.480;-6.300;2022-10-31T09:25:26;99861.44;;;16.99;62.21
61537;BME280;48695;53.480;-6.300;2022-10-31T09:27:58;99858.59;;;17.02;62.29
61537;BME280;48695;53.480;-6.300;2022-10-31T09:30:28;99870.94;;;17.01;62.24
61537;BME280;48695;53.480;-6.300;2022-10-31T09:33:00;99870.66;;;17.06;62.60
61537;BME280;48695;53.480;-6.300;2022-10-31T09:35:27;99869.97;;;17.02;62.32
61537;BME280;48695;53.480;-6.300;2022-10-31T09:38:03;99864.25;;;17.10;62.68
61537;BME280;48695;53.480;-6.300;2022-10-31T09:40:34;99864.25;;;17.10;63.58
61537;BME280;48695;53.480;-6.300;2022-10-31T09:52:03;99849.00;;;17.01;63.00
61537;BME280;48695;53.480;-6.300;2022-10-31T09:57:23;99840.53;;;16.96;63.56
61537;BME280;48695;53.480;-6.300;2022-10-31T09:59:50;99847.69;;;16.94;63.51
61537;BME280;48695;53.480;-6.300;2022-10-31T10:02:33;99843.25;;;16.94;63.62
61537;BME280;48695;53.480;-6.300;2022-10-31T10:05:03;99849.16;;;16.98;63.25
61537;BME280;48695;53.480;-6.300;2022-10-31T10:09:59;99853.59;;;16.97;62.63
61537;BME280;48695;53.480;-6.300;2022-10-31T10:23:43;99854.97;;;17.17;62.72
61537;BME280;48695;53.480;-6.300;2022-10-31T10:26:21;99861.22;;;17.16;62.31
61537;BME280;48695;53.480;-6.300;2022-10-31T10:31:44;99849.22;;;17.25;61.95
61537;BME280;48695;53.480;-6.300;2022-10-31T10:34:26;99851.59;;;17.29;62.47
61537;BME280;48695;53.480;-6.300;2022-10-31T10:37:00;99857.41;;;17.34;62.36
61537;BME280;48695;53.480;-6.300;2022-10-31T10:39:35;99831.38;;;17.28;61.86
61537;BME280;48695;53.480;-6.300;2022-10-31T10:42:10;99859.47;;;17.44;61.82
61537;BME280;48695;53.480;-6.300;2022-10-31T10:44:55;99847.84;;;17.46;61.74
61537;BME280;48695;53.480;-6.300;2022-10-31T10:48:05;99843.78;;;17.55;62.17
61537;BME280;48695;53.480;-6.300;2022-10-31T10:50:37;99825.78;;;17.47;62.13
61537;BME280;48695;53.480;-6.300;2022-10-31T10:56:15;99842.75;;;17.70;62.46
61537;BME280;48695;53.480;-6.300;2022-10-31T10:58:41;99839.00;;;17.74;62.02
61537;BME280;48695;53.480;-6.300;2022-10-31T11:01:14;99848.94;;;17.83;61.39
61537;BME280;48695;53.480;-6.300;2022-10-31T11:03:41;99841.03;;;17.83;60.98
61537;BME280;48695;53.480;-6.300;2022-10-31T11:06:19;99837.78;;;17.93;61.49
61537;BME280;48695;53.480;-6.300;2022-10-31T11:08:48;99846.47;;;17.95;60.31
61537;BME280;48695;53.480;-6.300;2022-10-31T11:13:44;99840.16;;;18.10;61.00
61537;BME280;48695;53.480;-6.300;2022-10-31T11:16:31;99831.91;;;18.27;62.29
61537;BME280;48695;53.480;-6.300;2022-10-31T11:21:43;99839.94;;;18.51;59.80
61537;BME280;48695;53.480;-6.300;2022-10-31T11:24:18;99835.59;;;18.63;59.99
61537;BME280;48695;53.480;-6.300;2022-10-31T11:26:46;99844.81;;;18.70;59.16
61537;BME280;48695;53.480;-6.300;2022-10-31T11:29:19;99835.09;;;18.71;59.18
61537;BME280;48695;53.480;-6.300;2022-10-31T11:31:45;99852.22;;;18.78;59.50
61537;BME280;48695;53.480;-6.300;2022-10-31T11:34:42;99841.75;;;18.76;59.42
61537;BME280;48695;53.480;-6.300;2022-10-31T11:37:24;99852.00;;;18.93;59.84
61537;BME280;48695;53.480;-6.300;2022-10-31T11:39:53;99853.91;;;18.91;58.71
61537;BME280;48695;53.480;-6.300;2022-10-31T11:42:25;99850.94;;;18.83;59.56
61537;BME280;48695;53.480;-6.300;2022-10-31T11:44:52;99856.44;;;18.67;60.96
61537;BME280;48695;53.480;-6.300;2022-10-31T11:47:26;99865.13;;;18.57;59.76
61537;BME280;48695;53.480;-6.300;2022-10-31T11:49:53;99849.03;;;18.34;59.41
61537;BME280;48695;53.480;-6.300;2022-10-31T11:52:25;99853.66;;;18.18;59.87
61537;BME280;48695;53.480;-6.300;2022-10-31T11:54:58;99831.69;;;18.05;60.01
61537;BME280;48695;53.480;-6.300;2022-10-31T12:00:03;99856.53;;;17.75;61.78
61537;BME280;48695;53.480;-6.300;2022-10-31T12:02:29;99838.09;;;17.61;60.50
61537;BME280;48695;53.480;-6.300;2022-10-31T12:05:23;99826.84;;;17.45;63.06
61537;BME280;48695;53.480;-6.300;2022-10-31T12:07:47;99819.25;;;17.26;64.82
61537;BME280;48695;53.480;-6.300;2022-10-31T12:10:13;99815.81;;;17.11;65.19
61537;BME280;48695;53.480;-6.300;2022-10-31T13:23:05;99720.81;;;16.14;71.50
61537;BME280;48695;53.480;-6.300;2022-10-31T13:25:39;99722.94;;;16.50;69.45
61537;BME280;48695;53.480;-6.300;2022-10-31T13:31:05;99716.84;;;16.91;67.93
61537;BME280;48695;53.480;-6.300;2022-10-31T13:33:44;99718.59;;;17.05;69.11
61537;BME280;48695;53.480;-6.300;2022-10-31T13:38:50;99718.59;;;17.05;68.67
61537;BME280;48695;53.480;-6.300;2022-10-31T13:44:14;99712.53;;;16.90;67.23
61537;BME280;48695;53.480;-6.300;2022-10-31T13:46:42;99709.81;;;16.77;69.45
61537;BME280;48695;53.480;-6.300;2022-10-31T13:51:52;99706.38;;;16.63;70.53
61537;BME280;48695;53.480;-6.300;2022-10-31T13:54:23;99720.56;;;16.60;69.89
61537;BME280;48695;53.480;-6.300;2022-10-31T13:56:56;99691.97;;;16.54;69.34
61537;BME280;48695;53.480;-6.300;2022-10-31T13:59:23;99656.53;;;16.31;70.35
61537;BME280;48695;53.480;-6.300;2022-10-31T14:02:01;99706.28;;;16.50;69.10
61537;BME280;48695;53.480;-6.300;2022-10-31T14:04:48;99678.44;;;16.46;69.63
61537;BME280;48695;53.480;-6.300;2022-10-31T14:07:20;99682.00;;;16.45;69.27
61537;BME280;48695;53.480;-6.300;2022-10-31T14:12:41;99698.00;;;16.42;69.38
61537;BME280;48695;53.480;-6.300;2022-10-31T14:15:20;99696.31;;;16.41;69.01
61537;BME280;48695;53.480;-6.300;2022-10-31T14:18:05;99701.03;;;16.35;69.98
61537;BME280;48695;53.480;-6.300;2022-10-31T14:20:43;99683.72;;;16.31;69.51
61537;BME280;48695;53.480;-6.300;2022-10-31T14:28:53;99680.72;;;16.23;70.01
61537;BME280;48695;53.480;-6.300;2022-10-31T14:31:27;99685.78;;;16.26;69.01
61537;BME280;48695;53.480;-6.300;2022-10-31T14:33:54;99674.69;;;16.21;70.38
61537;BME280;48695;53.480;-6.300;2022-10-31T14:39:23;99678.09;;;16.23;69.68
61537;BME280;48695;53.480;-6.300;2022-10-31T14:50:24;99677.53;;;16.32;68.79
61537;BME280;48695;53.480;-6.300;2022-10-31T14:52:54;99663.69;;;16.29;68.37
61537;BME280;48695;53.480;-6.300;2022-10-31T14:55:22;99652.38;;;16.27;69.30
61537;BME280;48695;53.480;-6.300;2022-10-31T14:58:07;99669.22;;;16.39;68.17
61537;BME280;48695;53.480;-6.300;2022-10-31T15:00:34;99658.88;;;16.35;68.98
61537;BME280;48695;53.480;-6.300;2022-10-31T15:03:16;99659.44;;;16.41;68.79
61537;BME280;48695;53.480;-6.300;2022-10-31T15:05:46;99647.59;;;16.33;68.31
61537;BME280;48695;53.480;-6.300;2022-10-31T15:08:33;99655.94;;;16.40;68.33
61537;BME280;48695;53.480;-6.300;2022-10-31T15:11:02;99660.19;;;16.43;68.55
61537;BME280;48695;53.480;-6.300;2022-10-31T15:13:28;99660.28;;;16.41;67.81
61537;BME280;48695;53.480;-6.300;2022-10-31T15:15:55;99656.69;;;16.42;67.91
61537;BME280;48695;53.480;-6.300;2022-10-31T15:18:24;99663.41;;;16.33;67.84
61537;BME280;48695;53.480;-6.300;2022-10-31T15:20:51;99684.75;;;16.43;68.80
61537;BME280;48695;53.480;-6.300;2022-10-31T15:23:25;99683.91;;;16.43;68.86
61537;BME280;48695;53.480;-6.300;2022-10-31T15:26:03;99660.94;;;16.30;69.14
61537;BME280;48695;53.480;-6.300;2022-10-31T15:28:29;99666.22;;;16.16;67.80
61537;BME280;48695;53.480;-6.300;2022-10-31T15:31:00;99655.53;;;15.91;70.37
61537;BME280;48695;53.480;-6.300;2022-10-31T15:33:29;99665.13;;;15.77;71.89
61537;BME280;48695;53.480;-6.300;2022-10-31T15:36:01;99662.47;;;15.63;71.01
61537;BME280;48695;53.480;-6.300;2022-10-31T15:38:28;99659.97;;;15.46;73.19
61537;BME280;48695;53.480;-6.300;2022-10-31T15:41:01;99665.00;;;15.35;72.60
61537;BME280;48695;53.480;-6.300;2022-10-31T15:43:34;99663.78;;;15.26;72.67
61537;BME280;48695;53.480;-6.300;2022-10-31T15:46:02;99665.25;;;15.16;73.74
61537;BME280;48695;53.480;-6.300;2022-10-31T15:48:29;99659.59;;;15.08;74.20